sensor_id;sensor_type;location;lat;lon;timestamp;temperature;humidity
23259;DHT22;11798;51.528;7.240;2023-05-07T00:01:56;14.10;99.90
23259;DHT22;11798;51.528;7.240;2023-05-07T00:04:22;14.20;99.90
23259;DHT22;11798;51.528;7.240;2023-05-07T00:06:47;14.20;99.90
23259;DHT22;11798;51.528;7.240;2023-05-07T00:09:13;14.20;99.90
23259;DHT22;11798;51.528;7.240;2023-05-07T00:11:39;14.10;99.90
23259;DHT22;11798;51.528;7.240;2023-05-07T00:14:05;14.10;99.90
23259;DHT22;11798;51.528;7.240;2023-05-07T00:16:31;14.10;99.90
23259;DHT22;11798;51.528;7.240;2023-05-07T00:18:57;14.20;99.90
23259;DHT22;11798;51.528;7.240;2023-05-07T00:21:22;14.20;99.90
23259;DHT22;11798;51.528;7.240;2023-05-07T00:23:48;14.20;99.90
23259;DHT22;11798;51.528;7.240;2023-05-07T00:26:13;14.10;99.90
23259;DHT22;11798;51.528;7.240;2023-05-07T00:28:39;14.10;99.90
23259;DHT22;11798;51.528;7.240;2023-05-07T00:31:05;14.10;99.90
23259;DHT22;11798;51.528;7.240;2023-05-07T00:33:30;14.10;99.90
23259;DHT22;11798;51.528;7.240;2023-05-07T00:35:56;14.10;99.90
23259;DHT22;11798;51.528;7.240;2023-05-07T00:38:21;14.10;99.90
23259;DHT22;11798;51.528;7.240;2023-05-07T00:40:47;14.10;99.90
23259;DHT22;11798;51.528;7.240;2023-05-07T00:43:13;14.10;99.90
23259;DHT22;11798;51.528;7.240;2023-05-07T00:45:38;14.10;99.90
23259;DHT22;11798;51.528;7.240;2023-05-07T00:48:04;14.10;99.90
23259;DHT22;11798;51.528;7.240;2023-05-07T00:50:31;14.10;99.90
23259;DHT22;11798;51.528;7.240;2023-05-07T00:52:57;14.10;99.90
23259;DHT22;11798;51.528;7.240;2023-05-07T00:55:23;14.00;99.90
23259;DHT22;11798;51.528;7.240;2023-05-07T00:57:50;14.00;99.90
23259;DHT22;11798;51.528;7.240;2023-05-07T01:00:16;14.00;99.90
23259;DHT22;11798;51.528;7.240;2023-05-07T01:02:43;14.00;99.90
23259;DHT22;11798;51.528;7.240;2023-05-07T01:05:15;14.00;99.90
23259;DHT22;11798;51.528;7.240;2023-05-07T01:07:41;14.00;99.90
23259;DHT22;11798;51.528;7.240;2023-05-07T01:10:08;14.00;99.90
23259;DHT22;11798;51.528;7.240;2023-05-07T01:12:36;14.00;99.90
23259;DHT22;11798;51.528;7.240;2023-05-07T01:15:03;13.90;99.90
23259;DHT22;11798;51.528;7.240;2023-05-07T01:17:36;13.90;99.90
23259;DHT22;11798;51.528;7.240;2023-05-07T01:20:02;13.90;99.90
23259;DHT22;11798;51.528;7.240;2023-05-07T01:22:34;13.90;99.90
23259;DHT22;11798;51.528;7.240;2023-05-07T01:25:02;13.90;99.90
23259;DHT22;11798;51.528;7.240;2023-05-07T01:27:28;13.90;99.90
23259;DHT22;11798;51.528;7.240;2023-05-07T01:29:54;13.90;99.90
23259;DHT22;11798;51.528;7.240;2023-05-07T01:32:24;13.90;99.90
23259;DHT22;11798;51.528;7.240;2023-05-07T01:34:52;13.90;99.90
23259;DHT22;11798;51.528;7.240;2023-05-07T01:37:20;13.90;99.90
23259;DHT22;11798;51.528;7.240;2023-05-07T01:39:46;13.90;99.90
23259;DHT22;11798;51.528;7.240;2023-05-07T01:42:13;13.90;99.90
23259;DHT22;11798;51.528;7.240;2023-05-07T01:44:38;14.00;99.90
23259;DHT22;11798;51.528;7.240;2023-05-07T01:47:05;14.00;99.90
23259;DHT22;11798;51.528;7.240;2023-05-07T01:49:31;14.00;99.90
23259;DHT22;11798;51.528;7.240;2023-05-07T01:51:58;14.00;99.90
23259;DHT22;11798;51.528;7.240;2023-05-07T01:54:27;14.00;99.90
23259;DHT22;11798;51.528;7.240;2023-05-07T01:56:53;14.00;99.90
23259;DHT22;11798;51.528;7.240;2023-05-07T01:59:19;14.00;99.90
23259;DHT22;11798;51.528;7.240;2023-05-07T02:01:44;14.00;99.90
23259;DHT22;11798;51.528;7.240;2023-05-07T02:04:10;13.90;99.90
23259;DHT22;11798;51.528;7.240;2023-05-07T02:06:36;13.90;99.90
23259;DHT22;11798;51.528;7.240;2023-05-07T02:09:01;13.90;99.90
23259;DHT22;11798;51.528;7.240;2023-05-07T02:11:27;13.90;99.90
23259;DHT22;11798;51.528;7.240;2023-05-07T02:13:52;13.90;99.90
23259;DHT22;11798;51.528;7.240;2023-05-07T02:16:18;13.90;99.90
23259;DHT22;11798;51.528;7.240;2023-05-07T02:18:45;13.90;99.90
23259;DHT22;11798;51.528;7.240;2023-05-07T02:21:10;13.90;99.90
23259;DHT22;11798;51.528;7.240;2023-05-07T02:23:36;13.90;99.90
23259;DHT22;11798;51.528;7.240;2023-05-07T02:26:03;13.90;99.90
23259;DHT22;11798;51.528;7.240;2023-05-07T02:28:29;13.90;99.90
23259;DHT22;11798;51.528;7.240;2023-05-07T02:30:54;13.90;99.90
23259;DHT22;11798;51.528;7.240;2023-05-07T02:33:20;13.90;99.90
23259;DHT22;11798;51.528;7.240;2023-05-07T02:35:46;13.80;99.90
23259;DHT22;11798;51.528;7.240;2023-05-07T02:38:11;13.80;99.90
23259;DHT22;11798;51.528;7.240;2023-05-07T02:40:37;13.80;99.90
23259;DHT22;11798;51.528;7.240;2023-05-07T02:43:05;13.80;99.90
23259;DHT22;11798;51.528;7.240;2023-05-07T02:45:32;13.80;99.90
23259;DHT22;11798;51.528;7.240;2023-05-07T02:47:58;13.80;99.90
23259;DHT22;11798;51.528;7.240;2023-05-07T02:50:23;13.80;99.90
23259;DHT22;11798;51.528;7.240;2023-05-07T02:52:49;13.80;99.90
23259;DHT22;11798;51.528;7.240;2023-05-07T02:55:15;13.80;99.90
23259;DHT22;11798;51.528;7.240;2023-05-07T02:57:41;13.80;99.90
23259;DHT22;11798;51.528;7.240;2023-05-07T03:00:16;13.70;99.90
23259;DHT22;11798;51.528;7.240;2023-05-07T03:02:43;13.70;99.90
23259;DHT22;11798;51.528;7.240;2023-05-07T03:05:09;13.70;99.90
23259;DHT22;11798;51.528;7.240;2023-05-07T03:07:35;13.70;99.90
23259;DHT22;11798;51.528;7.240;2023-05-07T03:10:02;13.80;99.90
23259;DHT22;11798;51.528;7.240;2023-05-07T03:12:27;13.80;99.90
23259;DHT22;11798;51.528;7.240;2023-05-07T03:14:53;13.80;99.90
23259;DHT22;11798;51.528;7.240;2023-05-07T03:17:20;13.80;99.90
23259;DHT22;11798;51.528;7.240;2023-05-07T03:19:45;13.70;99.90
23259;DHT22;11798;51.528;7.240;2023-05-07T03:22:11;13.60;99.90
23259;DHT22;11798;51.528;7.240;2023-05-07T03:24:36;13.60;99.90
23259;DHT22;11798;51.528;7.240;2023-05-07T03:27:02;13.60;99.90
23259;DHT22;11798;51.528;7.240;2023-05-07T03:29:28;13.60;99.90
23259;DHT22;11798;51.528;7.240;2023-05-07T03:31:53;13.60;99.90
23259;DHT22;11798;51.528;7.240;2023-05-07T03:34:19;13.60;99.90
23259;DHT22;11798;51.528;7.240;2023-05-07T03:36:48;13.70;99.90
23259;DHT22;11798;51.528;7.240;2023-05-07T03:39:14;13.70;99.90
23259;DHT22;11798;51.528;7.240;2023-05-07T03:41:40;13.60;99.90
23259;DHT22;11798;51.528;7.240;2023-05-07T03:44:05;13.60;99.90
23259;DHT22;11798;51.528;7.240;2023-05-07T03:46:31;13.70;99.90
23259;DHT22;11798;51.528;7.240;2023-05-07T03:48:58;13.70;99.90
23259;DHT22;11798;51.528;7.240;2023-05-07T03:51:23;13.70;99.90
23259;DHT22;11798;51.528;7.240;2023-05-07T03:53:49;13.70;99.90
23259;DHT22;11798;51.528;7.240;2023-05-07T03:56:18;13.70;99.90
23259;DHT22;11798;51.528;7.240;2023-05-07T03:58:44;13.70;99.90
23259;DHT22;11798;51.528;7.240;2023-05-07T04:01:09;13.70;99.90
23259;DHT22;11798;51.528;7.240;2023-05-07T04:03:35;13.70;99.90
23259;DHT22;11798;51.528;7.240;2023-05-07T04:06:00;13.70;99.90
23259;DHT22;11798;51.528;7.240;2023-05-07T04:08:26;13.70;99.90
23259;DHT22;11798;51.528;7.240;2023-05-07T04:10:58;13.70;99.90
23259;DHT22;11798;51.528;7.240;2023-05-07T04:13:24;13.60;99.90
23259;DHT22;11798;51.528;7.240;2023-05-07T04:15:50;13.60;99.90
23259;DHT22;11798;51.528;7.240;2023-05-07T04:18:16;13.70;99.90
23259;DHT22;11798;51.528;7.240;2023-05-07T04:20:41;13.60;99.90
23259;DHT22;11798;51.528;7.240;2023-05-07T04:23:07;13.60;99.90
23259;DHT22;11798;51.528;7.240;2023-05-07T04:25:33;13.60;99.90
23259;DHT22;11798;51.528;7.240;2023-05-07T04:27:59;13.50;99.90
23259;DHT22;11798;51.528;7.240;2023-05-07T04:30:25;13.50;99.90
23259;DHT22;11798;51.528;7.240;2023-05-07T04:32:51;13.60;99.90
23259;DHT22;11798;51.528;7.240;2023-05-07T04:35:16;13.60;99.90
23259;DHT22;11798;51.528;7.240;2023-05-07T04:37:42;13.60;99.90
23259;DHT22;11798;51.528;7.240;2023-05-07T04:40:08;13.60;99.90
23259;DHT22;11798;51.528;7.240;2023-05-07T04:42:34;13.60;99.90
23259;DHT22;11798;51.528;7.240;2023-05-07T04:45:01;13.60;99.90
23259;DHT22;11798;51.528;7.240;2023-05-07T04:47:27;13.60;99.90
23259;DHT22;11798;51.528;7.240;2023-05-07T04:49:53;13.70;99.90
23259;DHT22;11798;51.528;7.240;2023-05-07T04:52:18;13.70;99.90
23259;DHT22;11798;51.528;7.240;2023-05-07T04:54:44;13.60;99.90
23259;DHT22;11798;51.528;7.240;2023-05-07T04:57:09;13.60;99.90
23259;DHT22;11798;51.528;7.240;2023-05-07T04:59:35;13.70;99.90
23259;DHT22;11798;51.528;7.240;2023-05-07T05:02:01;13.70;99.90
23259;DHT22;11798;51.528;7.240;2023-05-07T05:04:26;13.80;99.90
23259;DHT22;11798;51.528;7.240;2023-05-07T05:06:52;13.80;99.90
23259;DHT22;11798;51.528;7.240;2023-05-07T05:09:18;13.80;99.90
23259;DHT22;11798;51.528;7.240;2023-05-07T05:11:44;13.90;99.90
23259;DHT22;11798;51.528;7.240;2023-05-07T05:14:09;13.90;99.90
23259;DHT22;11798;51.528;7.240;2023-05-07T05:16:35;13.90;99.90
23259;DHT22;11798;51.528;7.240;2023-05-07T05:19:01;13.90;99.90
23259;DHT22;11798;51.528;7.240;2023-05-07T05:21:27;13.90;99.90
23259;DHT22;11798;51.528;7.240;2023-05-07T05:23:53;13.90;99.90
23259;DHT22;11798;51.528;7.240;2023-05-07T05:26:19;14.00;99.90
23259;DHT22;11798;51.528;7.240;2023-05-07T05:28:46;14.00;99.90
23259;DHT22;11798;51.528;7.240;2023-05-07T05:31:12;14.00;99.90
23259;DHT22;11798;51.528;7.240;2023-05-07T05:33:38;14.00;99.90
23259;DHT22;11798;51.528;7.240;2023-05-07T05:36:04;14.10;99.90
23259;DHT22;11798;51.528;7.240;2023-05-07T05:38:29;14.10;99.90
23259;DHT22;11798;51.528;7.240;2023-05-07T05:40:55;14.10;99.90
23259;DHT22;11798;51.528;7.240;2023-05-07T05:43:20;14.10;99.90
23259;DHT22;11798;51.528;7.240;2023-05-07T05:45:46;14.10;99.90
23259;DHT22;11798;51.528;7.240;2023-05-07T05:48:12;14.20;99.90
23259;DHT22;11798;51.528;7.240;2023-05-07T05:50:37;14.20;99.90
23259;DHT22;11798;51.528;7.240;2023-05-07T05:53:03;14.30;99.90
23259;DHT22;11798;51.528;7.240;2023-05-07T05:55:29;14.30;99.90
23259;DHT22;11798;51.528;7.240;2023-05-07T05:57:55;14.40;99.90
23259;DHT22;11798;51.528;7.240;2023-05-07T06:00:21;14.50;99.90
23259;DHT22;11798;51.528;7.240;2023-05-07T06:02:48;14.50;99.90
23259;DHT22;11798;51.528;7.240;2023-05-07T06:05:14;14.60;99.90
23259;DHT22;11798;51.528;7.240;2023-05-07T06:07:40;14.70;99.90
23259;DHT22;11798;51.528;7.240;2023-05-07T06:10:06;14.70;99.90
23259;DHT22;11798;51.528;7.240;2023-05-07T06:12:32;14.80;99.90
23259;DHT22;11798;51.528;7.240;2023-05-07T06:14:57;14.80;99.90
23259;DHT22;11798;51.528;7.240;2023-05-07T06:17:23;14.90;99.90
23259;DHT22;11798;51.528;7.240;2023-05-07T06:19:48;15.10;99.90
23259;DHT22;11798;51.528;7.240;2023-05-07T06:22:14;15.30;99.90
23259;DHT22;11798;51.528;7.240;2023-05-07T06:24:40;15.40;99.90
23259;DHT22;11798;51.528;7.240;2023-05-07T06:27:05;15.40;99.90
23259;DHT22;11798;51.528;7.240;2023-05-07T06:29:31;15.60;99.90
23259;DHT22;11798;51.528;7.240;2023-05-07T06:32:09;15.70;99.90
23259;DHT22;11798;51.528;7.240;2023-05-07T06:34:36;15.60;99.90
23259;DHT22;11798;51.528;7.240;2023-05-07T06:37:02;15.70;99.90
23259;DHT22;11798;51.528;7.240;2023-05-07T06:39:27;15.70;99.90
23259;DHT22;11798;51.528;7.240;2023-05-07T06:41:53;15.70;99.90
23259;DHT22;11798;51.528;7.240;2023-05-07T06:44:19;15.80;99.90
23259;DHT22;11798;51.528;7.240;2023-05-07T06:46:44;15.80;99.90
23259;DHT22;11798;51.528;7.240;2023-05-07T06:49:11;15.80;99.90
23259;DHT22;11798;51.528;7.240;2023-05-07T06:51:37;15.80;99.90
23259;DHT22;11798;51.528;7.240;2023-05-07T06:54:03;15.80;99.90
23259;DHT22;11798;51.528;7.240;2023-05-07T06:56:30;15.90;99.90
23259;DHT22;11798;51.528;7.240;2023-05-07T06:58:55;16.00;99.90
23259;DHT22;11798;51.528;7.240;2023-05-07T07:01:21;16.00;99.90
23259;DHT22;11798;51.528;7.240;2023-05-07T07:03:47;16.10;99.90
23259;DHT22;11798;51.528;7.240;2023-05-07T07:06:12;16.20;99.90
23259;DHT22;11798;51.528;7.240;2023-05-07T07:08:38;16.30;99.90
23259;DHT22;11798;51.528;7.240;2023-05-07T07:11:07;16.40;99.90
23259;DHT22;11798;51.528;7.240;2023-05-07T07:13:33;16.30;99.90
23259;DHT22;11798;51.528;7.240;2023-05-07T07:15:59;16.40;99.90
23259;DHT22;11798;51.528;7.240;2023-05-07T07:18:25;16.30;99.90
23259;DHT22;11798;51.528;7.240;2023-05-07T07:20:51;16.40;99.90
23259;DHT22;11798;51.528;7.240;2023-05-07T07:23:16;16.50;99.90
23259;DHT22;11798;51.528;7.240;2023-05-07T07:25:42;16.50;99.90
23259;DHT22;11798;51.528;7.240;2023-05-07T07:28:07;16.60;99.90
23259;DHT22;11798;51.528;7.240;2023-05-07T07:30:33;16.70;99.90
23259;DHT22;11798;51.528;7.240;2023-05-07T07:32:59;16.50;99.90
23259;DHT22;11798;51.528;7.240;2023-05-07T07:35:32;16.50;99.90
23259;DHT22;11798;51.528;7.240;2023-05-07T07:37:58;16.50;99.90
23259;DHT22;11798;51.528;7.240;2023-05-07T07:40:24;16.60;99.90
23259;DHT22;11798;51.528;7.240;2023-05-07T07:42:50;16.60;99.90
23259;DHT22;11798;51.528;7.240;2023-05-07T07:45:16;16.70;99.90
23259;DHT22;11798;51.528;7.240;2023-05-07T07:47:42;16.50;99.90
23259;DHT22;11798;51.528;7.240;2023-05-07T07:50:08;16.70;99.90
23259;DHT22;11798;51.528;7.240;2023-05-07T07:52:34;16.80;99.90
23259;DHT22;11798;51.528;7.240;2023-05-07T07:55:00;17.00;99.90
23259;DHT22;11798;51.528;7.240;2023-05-07T07:57:25;17.00;99.90
23259;DHT22;11798;51.528;7.240;2023-05-07T07:59:51;17.10;99.90
23259;DHT22;11798;51.528;7.240;2023-05-07T08:02:17;17.10;99.90
23259;DHT22;11798;51.528;7.240;2023-05-07T08:04:43;17.10;99.90
23259;DHT22;11798;51.528;7.240;2023-05-07T08:07:09;17.30;99.90
23259;DHT22;11798;51.528;7.240;2023-05-07T08:09:36;17.10;99.90
23259;DHT22;11798;51.528;7.240;2023-05-07T08:12:02;17.20;99.90
23259;DHT22;11798;51.528;7.240;2023-05-07T08:14:28;17.20;99.90
23259;DHT22;11798;51.528;7.240;2023-05-07T08:16:54;17.40;99.90
23259;DHT22;11798;51.528;7.240;2023-05-07T08:19:20;17.40;99.90
23259;DHT22;11798;51.528;7.240;2023-05-07T08:21:47;17.50;99.90
23259;DHT22;11798;51.528;7.240;2023-05-07T08:24:16;17.30;99.90
23259;DHT22;11798;51.528;7.240;2023-05-07T08:26:43;17.40;99.90
23259;DHT22;11798;51.528;7.240;2023-05-07T08:29:09;17.50;99.90
23259;DHT22;11798;51.528;7.240;2023-05-07T08:31:35;17.50;99.90
23259;DHT22;11798;51.528;7.240;2023-05-07T08:34:00;17.40;99.90
23259;DHT22;11798;51.528;7.240;2023-05-07T08:36:26;17.40;99.90
23259;DHT22;11798;51.528;7.240;2023-05-07T08:38:52;17.40;99.90
23259;DHT22;11798;51.528;7.240;2023-05-07T08:41:18;17.40;99.90
23259;DHT22;11798;51.528;7.240;2023-05-07T08:43:49;17.40;99.90
23259;DHT22;11798;51.528;7.240;2023-05-07T08:46:20;17.60;99.90
23259;DHT22;11798;51.528;7.240;2023-05-07T08:48:48;17.60;99.90
23259;DHT22;11798;51.528;7.240;2023-05-07T08:51:17;17.50;99.90
23259;DHT22;11798;51.528;7.240;2023-05-07T08:53:44;17.50;99.90
23259;DHT22;11798;51.528;7.240;2023-05-07T08:56:10;17.60;99.90
23259;DHT22;11798;51.528;7.240;2023-05-07T08:58:36;17.50;99.90
23259;DHT22;11798;51.528;7.240;2023-05-07T09:01:07;17.50;99.90
23259;DHT22;11798;51.528;7.240;2023-05-07T09:03:33;17.60;99.90
23259;DHT22;11798;51.528;7.240;2023-05-07T09:05:58;17.70;99.90
23259;DHT22;11798;51.528;7.240;2023-05-07T09:08:26;17.80;99.90
23259;DHT22;11798;51.528;7.240;2023-05-07T09:10:52;17.90;99.90
23259;DHT22;11798;51.528;7.240;2023-05-07T09:13:17;17.80;99.90
23259;DHT22;11798;51.528;7.240;2023-05-07T09:15:43;17.70;99.90
23259;DHT22;11798;51.528;7.240;2023-05-07T09:18:09;17.70;99.90
23259;DHT22;11798;51.528;7.240;2023-05-07T09:20:37;17.90;99.90
23259;DHT22;11798;51.528;7.240;2023-05-07T09:23:02;18.00;99.90
23259;DHT22;11798;51.528;7.240;2023-05-07T09:25:32;17.90;99.90
23259;DHT22;11798;51.528;7.240;2023-05-07T09:27:59;18.00;99.90
23259;DHT22;11798;51.528;7.240;2023-05-07T09:30:32;18.20;99.90
23259;DHT22;11798;51.528;7.240;2023-05-07T09:32:59;18.30;99.90
23259;DHT22;11798;51.528;7.240;2023-05-07T09:35:26;18.40;99.90
23259;DHT22;11798;51.528;7.240;2023-05-07T09:37:58;18.50;99.90
23259;DHT22;11798;51.528;7.240;2023-05-07T09:40:26;18.60;99.90
23259;DHT22;11798;51.528;7.240;2023-05-07T09:42:53;18.70;99.90
23259;DHT22;11798;51.528;7.240;2023-05-07T09:45:25;18.90;99.90
23259;DHT22;11798;51.528;7.240;2023-05-07T09:47:54;19.00;99.90
23259;DHT22;11798;51.528;7.240;2023-05-07T09:50:25;19.10;99.90
23259;DHT22;11798;51.528;7.240;2023-05-07T09:52:54;19.10;99.90
23259;DHT22;11798;51.528;7.240;2023-05-07T09:55:20;18.90;99.90
23259;DHT22;11798;51.528;7.240;2023-05-07T09:57:49;18.90;99.90
23259;DHT22;11798;51.528;7.240;2023-05-07T10:00:15;19.00;99.90
23259;DHT22;11798;51.528;7.240;2023-05-07T10:02:43;19.10;99.90
23259;DHT22;11798;51.528;7.240;2023-05-07T10:05:14;19.10;99.90
23259;DHT22;11798;51.528;7.240;2023-05-07T10:07:40;19.40;99.90
23259;DHT22;11798;51.528;7.240;2023-05-07T10:10:07;19.40;99.90
23259;DHT22;11798;51.528;7.240;2023-05-07T10:12:33;19.60;99.90
23259;DHT22;11798;51.528;7.240;2023-05-07T10:15:06;19.70;99.90
23259;DHT22;11798;51.528;7.240;2023-05-07T10:17:35;19.90;99.90
23259;DHT22;11798;51.528;7.240;2023-05-07T10:20:01;19.80;99.90
23259;DHT22;11798;51.528;7.240;2023-05-07T10:22:27;19.80;99.90
23259;DHT22;11798;51.528;7.240;2023-05-07T10:24:56;19.70;99.90
23259;DHT22;11798;51.528;7.240;2023-05-07T10:27:23;19.80;99.90
23259;DHT22;11798;51.528;7.240;2023-05-07T10:30:12;19.80;99.90
23259;DHT22;11798;51.528;7.240;2023-05-07T10:32:44;19.70;99.90
23259;DHT22;11798;51.528;7.240;2023-05-07T10:35:17;19.70;99.90
23259;DHT22;11798;51.528;7.240;2023-05-07T10:37:45;19.80;99.90
23259;DHT22;11798;51.528;7.240;2023-05-07T10:40:11;20.00;99.90
23259;DHT22;11798;51.528;7.240;2023-05-07T10:42:37;20.20;99.90
23259;DHT22;11798;51.528;7.240;2023-05-07T10:45:13;20.10;99.90
23259;DHT22;11798;51.528;7.240;2023-05-07T10:50:37;20.10;99.90
23259;DHT22;11798;51.528;7.240;2023-05-07T10:53:20;19.90;99.90
23259;DHT22;11798;51.528;7.240;2023-05-07T10:55:51;19.80;99.90
23259;DHT22;11798;51.528;7.240;2023-05-07T10:58:27;19.90;99.90
23259;DHT22;11798;51.528;7.240;2023-05-07T11:01:00;20.00;99.90
23259;DHT22;11798;51.528;7.240;2023-05-07T11:03:27;20.10;99.90
23259;DHT22;11798;51.528;7.240;2023-05-07T11:06:25;20.20;99.90
23259;DHT22;11798;51.528;7.240;2023-05-07T11:08:53;20.10;99.90
23259;DHT22;11798;51.528;7.240;2023-05-07T11:11:18;20.00;99.90
23259;DHT22;11798;51.528;7.240;2023-05-07T11:13:48;20.10;99.90
23259;DHT22;11798;51.528;7.240;2023-05-07T11:16:18;20.10;99.90
23259;DHT22;11798;51.528;7.240;2023-05-07T11:18:49;20.20;99.90
23259;DHT22;11798;51.528;7.240;2023-05-07T11:21:34;20.20;99.90
23259;DHT22;11798;51.528;7.240;2023-05-07T11:24:02;20.20;99.90
23259;DHT22;11798;51.528;7.240;2023-05-07T11:26:45;20.20;99.90
23259;DHT22;11798;51.528;7.240;2023-05-07T11:29:16;20.40;99.90
23259;DHT22;11798;51.528;7.240;2023-05-07T11:31:42;20.50;99.90
23259;DHT22;11798;51.528;7.240;2023-05-07T11:34:08;20.40;99.90
23259;DHT22;11798;51.528;7.240;2023-05-07T11:36:34;20.40;99.90
23259;DHT22;11798;51.528;7.240;2023-05-07T11:39:00;20.30;99.90
23259;DHT22;11798;51.528;7.240;2023-05-07T11:41:35;20.40;99.90
23259;DHT22;11798;51.528;7.240;2023-05-07T11:44:02;20.60;99.90
23259;DHT22;11798;51.528;7.240;2023-05-07T11:46:28;20.70;99.90
23259;DHT22;11798;51.528;7.240;2023-05-07T11:48:55;20.80;99.90
23259;DHT22;11798;51.528;7.240;2023-05-07T11:51:23;20.90;99.90
23259;DHT22;11798;51.528;7.240;2023-05-07T11:53:50;20.80;99.90
23259;DHT22;11798;51.528;7.240;2023-05-07T11:56:16;20.80;99.90
23259;DHT22;11798;51.528;7.240;2023-05-07T11:58:43;20.80;99.90
23259;DHT22;11798;51.528;7.240;2023-05-07T12:01:10;20.90;99.90
23259;DHT22;11798;51.528;7.240;2023-05-07T12:03:39;21.00;99.90
23259;DHT22;11798;51.528;7.240;2023-05-07T12:06:06;21.10;99.90
23259;DHT22;11798;51.528;7.240;2023-05-07T12:08:32;21.20;99.90
23259;DHT22;11798;51.528;7.240;2023-05-07T12:10:58;21.30;99.90
23259;DHT22;11798;51.528;7.240;2023-05-07T12:13:25;21.20;99.90
23259;DHT22;11798;51.528;7.240;2023-05-07T12:16:00;21.60;99.90
23259;DHT22;11798;51.528;7.240;2023-05-07T12:18:28;21.70;99.90
23259;DHT22;11798;51.528;7.240;2023-05-07T12:20:55;22.00;99.90
23259;DHT22;11798;51.528;7.240;2023-05-07T12:23:22;22.00;99.90
23259;DHT22;11798;51.528;7.240;2023-05-07T12:25:48;22.10;99.90
23259;DHT22;11798;51.528;7.240;2023-05-07T12:28:18;21.90;99.90
23259;DHT22;11798;51.528;7.240;2023-05-07T12:30:45;21.80;99.90
23259;DHT22;11798;51.528;7.240;2023-05-07T12:33:11;21.70;99.90
23259;DHT22;11798;51.528;7.240;2023-05-07T12:35:41;21.80;99.90
23259;DHT22;11798;51.528;7.240;2023-05-07T12:38:14;22.00;99.90
23259;DHT22;11798;51.528;7.240;2023-05-07T12:40:46;21.90;99.90
23259;DHT22;11798;51.528;7.240;2023-05-07T12:45:42;21.70;99.90
23259;DHT22;11798;51.528;7.240;2023-05-07T12:48:10;21.70;99.90
23259;DHT22;11798;51.528;7.240;2023-05-07T12:50:36;21.90;99.90
23259;DHT22;11798;51.528;7.240;2023-05-07T12:53:04;22.00;99.90
23259;DHT22;11798;51.528;7.240;2023-05-07T12:55:32;21.90;99.90
23259;DHT22;11798;51.528;7.240;2023-05-07T12:58:01;21.80;99.90
23259;DHT22;11798;51.528;7.240;2023-05-07T13:00:34;21.90;99.90
23259;DHT22;11798;51.528;7.240;2023-05-07T13:03:00;21.80;99.90
23259;DHT22;11798;51.528;7.240;2023-05-07T13:05:26;21.90;99.90
23259;DHT22;11798;51.528;7.240;2023-05-07T13:07:55;21.90;99.90
23259;DHT22;11798;51.528;7.240;2023-05-07T13:10:22;21.70;99.90
23259;DHT22;11798;51.528;7.240;2023-05-07T13:12:49;21.60;99.90
23259;DHT22;11798;51.528;7.240;2023-05-07T13:15:15;21.40;99.90
23259;DHT22;11798;51.528;7.240;2023-05-07T13:17:41;21.40;99.90
23259;DHT22;11798;51.528;7.240;2023-05-07T13:20:07;21.40;99.90
23259;DHT22;11798;51.528;7.240;2023-05-07T13:22:33;21.30;99.90
23259;DHT22;11798;51.528;7.240;2023-05-07T13:24:59;21.20;99.90
23259;DHT22;11798;51.528;7.240;2023-05-07T13:27:24;21.10;99.90
23259;DHT22;11798;51.528;7.240;2023-05-07T13:29:51;21.10;99.90
23259;DHT22;11798;51.528;7.240;2023-05-07T13:32:17;20.90;99.90
23259;DHT22;11798;51.528;7.240;2023-05-07T13:34:42;21.00;99.90
23259;DHT22;11798;51.528;7.240;2023-05-07T13:37:08;21.10;99.90
23259;DHT22;11798;51.528;7.240;2023-05-07T13:39:34;20.90;99.90
23259;DHT22;11798;51.528;7.240;2023-05-07T13:41:59;20.80;99.90
23259;DHT22;11798;51.528;7.240;2023-05-07T13:44:26;20.90;99.90
23259;DHT22;11798;51.528;7.240;2023-05-07T13:46:52;20.80;99.90
23259;DHT22;11798;51.528;7.240;2023-05-07T13:49:17;20.70;99.90
23259;DHT22;11798;51.528;7.240;2023-05-07T13:51:43;20.60;99.90
23259;DHT22;11798;51.528;7.240;2023-05-07T13:54:09;20.60;99.90
23259;DHT22;11798;51.528;7.240;2023-05-07T13:56:34;20.50;99.90
23259;DHT22;11798;51.528;7.240;2023-05-07T13:59:00;20.50;99.90
23259;DHT22;11798;51.528;7.240;2023-05-07T14:01:26;20.50;99.90
23259;DHT22;11798;51.528;7.240;2023-05-07T14:03:52;20.40;99.90
23259;DHT22;11798;51.528;7.240;2023-05-07T14:06:17;20.40;99.90
23259;DHT22;11798;51.528;7.240;2023-05-07T14:08:43;20.30;99.90
23259;DHT22;11798;51.528;7.240;2023-05-07T14:11:08;20.30;99.90
23259;DHT22;11798;51.528;7.240;2023-05-07T14:13:34;20.30;99.90
23259;DHT22;11798;51.528;7.240;2023-05-07T14:16:00;20.10;99.90
23259;DHT22;11798;51.528;7.240;2023-05-07T14:18:26;20.10;99.90
23259;DHT22;11798;51.528;7.240;2023-05-07T14:20:52;20.20;99.90
23259;DHT22;11798;51.528;7.240;2023-05-07T14:23:17;20.10;99.90
23259;DHT22;11798;51.528;7.240;2023-05-07T14:25:45;20.10;99.90
23259;DHT22;11798;51.528;7.240;2023-05-07T14:28:13;20.10;99.90
23259;DHT22;11798;51.528;7.240;2023-05-07T14:30:38;20.10;99.90
23259;DHT22;11798;51.528;7.240;2023-05-07T14:33:04;20.00;99.90
23259;DHT22;11798;51.528;7.240;2023-05-07T14:35:30;20.00;99.90
23259;DHT22;11798;51.528;7.240;2023-05-07T14:37:55;20.00;99.90
23259;DHT22;11798;51.528;7.240;2023-05-07T14:40:21;20.10;99.90
23259;DHT22;11798;51.528;7.240;2023-05-07T14:42:47;20.00;99.90
23259;DHT22;11798;51.528;7.240;2023-05-07T14:45:12;20.00;99.90
23259;DHT22;11798;51.528;7.240;2023-05-07T14:47:38;20.00;99.90
23259;DHT22;11798;51.528;7.240;2023-05-07T14:50:04;20.10;99.90
23259;DHT22;11798;51.528;7.240;2023-05-07T14:52:30;20.20;99.90
23259;DHT22;11798;51.528;7.240;2023-05-07T14:54:55;20.20;99.90
23259;DHT22;11798;51.528;7.240;2023-05-07T14:57:21;20.20;99.90
23259;DHT22;11798;51.528;7.240;2023-05-07T14:59:46;20.10;99.90
23259;DHT22;11798;51.528;7.240;2023-05-07T15:02:13;20.10;99.90
23259;DHT22;11798;51.528;7.240;2023-05-07T15:04:39;20.20;99.90
23259;DHT22;11798;51.528;7.240;2023-05-07T15:07:14;20.20;99.90
23259;DHT22;11798;51.528;7.240;2023-05-07T15:09:44;20.20;99.90
23259;DHT22;11798;51.528;7.240;2023-05-07T15:12:10;20.30;99.90
23259;DHT22;11798;51.528;7.240;2023-05-07T15:14:37;20.20;99.90
23259;DHT22;11798;51.528;7.240;2023-05-07T15:17:03;20.30;99.90
23259;DHT22;11798;51.528;7.240;2023-05-07T15:19:28;20.30;99.90
23259;DHT22;11798;51.528;7.240;2023-05-07T15:21:58;20.30;99.90
23259;DHT22;11798;51.528;7.240;2023-05-07T15:24:30;20.30;99.90
23259;DHT22;11798;51.528;7.240;2023-05-07T15:26:56;20.30;99.90
23259;DHT22;11798;51.528;7.240;2023-05-07T15:29:23;20.30;99.90
23259;DHT22;11798;51.528;7.240;2023-05-07T15:31:49;20.20;99.90
23259;DHT22;11798;51.528;7.240;2023-05-07T15:34:14;20.20;99.90